Lihue, HI (96766)

12:18 AM HST on March 28, 2015 (GMT -1000)
Lihue | | Change Station
CLOSE
Current Station
Personal Weather Station
Location: Lihue, HI
Elevation: 342 ft
Nearby Weather Stations

Elev 342 ft 21.97 °N, 159.40 °W | Updated 46 minutes ago

Mostly Cloudy
Mostly Cloudy
68.5 °F
Feels Like 68.5 °F
N
1.8
Wind Variable Wind from North
Gusts 4.9 mph

Today
High -- | Low -- °F
--% Chance of Precip.
Yesterday
High -- | Low -- °F
Precip. -- in
6:34 AM 6:51 PM
First Quarter, 61% visible
Pressure 30.21 in
Visibility 10.0 miles
Clouds Scattered Clouds 2700 ft
Mostly Cloudy 3900 ft
Dew Point 65 °F
Humidity 89%
Rainfall -9999.00 in
Snow Depth Not available.
UV 0 out of 12
Pollen Not available.
Air Quality Not available.
Flu Activity Not available.
METAR PHLI 280853Z AUTO 07010KT 10SM SCT027 BKN039 23/17 A3022 RMK AO2 SLP230 T02330172 50006 TSNO

More Conditions Fewer Conditions

Pressure 30.21 in
Visibility 10.0 miles
Clouds Scattered Clouds 2700 ft
Mostly Cloudy 3900 ft
Dew Point 65 °F
Humidity 89%
Rainfall -9999.00 in
Snow Depth Not available.
UV 0 out of 12
Pollen Not available.
Air Quality Not available.
Flu Activity Not available.
METAR PHLI 280853Z AUTO 07010KT 10SM SCT027 BKN039 23/17 A3022 RMK AO2 SLP230 T02330172 50006 TSNO

More Conditions Fewer Conditions

10-Day Weather Forecast

Almanac

Astronomy

Mar. 28, 2015 Rise Set
Actual Time
Civil Twilight
Nautical Twilight
Astronomical Twilight
Moon
Length of Visible Light
Length of Day
Tomorrow will be .
, % of the Moon is Illuminated

Today's Extremes

State Highs State Lows

Community

WunderPhotos

Upload Photos

1,808,946 photos uploaded!

WunderBlogs® & News

Nearby

Air Quality

  Air Quality AQ Index Pollutant
Not available.

Snow Depth

Station Depth Elevation

Earthquake Activity

City Distance Mag. Time & Date
Minimum magnitude displayed is 2.5.

Coastal Water Temperatures

Place Temperature

Stations

Nearby Weather Stations

Station Location Temp. Windchill Dew Point Humidity Wind Precip. Elev Updated Type